Terminal Aerodrome Forecast
Issued by NWS

Home | Current Version | Previous Version | Text Only | Print | Product List | Glossary On
Versions: 1 2 3 4 5 6 7 8 9 10 11 12 13 14 15
279
FTAK31 PAJN 070521
TAFAGY
TAF
PAGY 070521Z 0706/0806 02006KT 6SM -SN OVC035
      TEMPO 0706/0710 2SM -SHSN BR
     FM071800 02012KT 5SM -SHSN OVC050
      AMD LTD TO CLD VIS AND WIND=

USA.gov is the U.S. government's official web portal to all federal, state and local government web resources and services.